createdAt,value
2019-03-29T00:01:29.449Z,67.60
2019-03-29T00:04:00.989Z,66.77
2019-03-29T00:06:32.346Z,66.13
2019-03-29T00:09:04.246Z,64.87
2019-03-29T00:11:35.368Z,65.57
2019-03-29T00:14:06.473Z,66.30
2019-03-29T00:16:37.567Z,64.67
2019-03-29T00:19:10.007Z,66.13
2019-03-29T00:21:41.024Z,67.37
2019-03-29T00:24:12.064Z,66.27
2019-03-29T00:26:43.395Z,66.47
2019-03-29T00:29:14.522Z,65.53
2019-03-29T00:31:45.626Z,65.17
2019-03-29T00:34:16.805Z,64.87
2019-03-29T00:36:47.878Z,65.83
2019-03-29T00:39:18.950Z,64.03
2019-03-29T00:41:51.325Z,63.33
2019-03-29T00:44:22.337Z,64.10
2019-03-29T00:46:53.435Z,64.73
2019-03-29T00:49:24.528Z,65.23
2019-03-29T00:51:55.548Z,63.90
2019-03-29T00:54:27.950Z,64.37
2019-03-29T00:56:59.046Z,62.63
2019-03-29T00:59:30.204Z,63.53
2019-03-29T01:02:01.166Z,63.63
2019-03-29T01:04:32.334Z,61.43
2019-03-29T01:07:04.227Z,64.33
2019-03-29T01:09:36.132Z,64.70
2019-03-29T01:12:07.246Z,67.67
2019-03-29T01:14:38.311Z,68.30
2019-03-29T01:17:09.412Z,66.33
2019-03-29T01:19:40.456Z,70.80
2019-03-29T01:22:11.507Z,68.90
2019-03-29T01:24:42.586Z,66.10
2019-03-29T01:27:13.620Z,68.93
2019-03-29T01:29:44.760Z,69.23
2019-03-29T01:32:15.764Z,67.80
2019-03-29T01:34:46.879Z,71.50
2019-03-29T01:37:17.918Z,73.80
2019-03-29T01:39:48.922Z,82.43
2019-03-29T01:42:19.964Z,86.57
2019-03-29T01:44:51.290Z,82.07
2019-03-29T01:47:22.304Z,84.47
2019-03-29T01:49:53.320Z,86.43
2019-03-29T01:52:24.363Z,84.70
2019-03-29T01:54:55.522Z,82.87
2019-03-29T01:57:26.588Z,80.87
2019-03-29T01:59:57.664Z,77.50
2019-03-29T02:02:28.745Z,76.90
2019-03-29T02:05:00.223Z,75.47
2019-03-29T02:07:32.132Z,70.40
2019-03-29T02:10:03.254Z,74.77
2019-03-29T02:12:34.527Z,75.60
2019-03-29T02:15:06.539Z,77.17
2019-03-29T02:17:37.730Z,75.93
2019-03-29T02:20:11.503Z,75.00
2019-03-29T02:22:43.041Z,71.90
2019-03-29T02:25:14.111Z,70.13
2019-03-29T02:27:45.249Z,73.07
2019-03-29T02:30:16.535Z,70.07
2019-03-29T02:32:47.654Z,74.83
2019-03-29T02:35:18.664Z,69.63
2019-03-29T02:37:49.747Z,69.93
2019-03-29T02:40:22.637Z,70.40
2019-03-29T02:42:53.883Z,70.90
2019-03-29T02:45:25.064Z,69.33
2019-03-29T02:47:56.200Z,72.93
2019-03-29T02:50:27.267Z,69.37
2019-03-29T02:52:58.380Z,70.47
2019-03-29T02:55:29.463Z,68.93
2019-03-29T02:58:00.533Z,67.40
2019-03-29T03:00:32.416Z,69.17
2019-03-29T03:03:03.617Z,70.80
2019-03-29T03:05:34.804Z,70.57
2019-03-29T03:08:07.254Z,66.43
2019-03-29T03:10:38.360Z,67.77
2019-03-29T03:13:09.376Z,69.03
2019-03-29T03:15:40.542Z,70.23
2019-03-29T03:18:11.683Z,67.50
2019-03-29T03:20:42.828Z,65.60
2019-03-29T03:23:13.884Z,63.87
2019-03-29T03:25:45.078Z,65.97
2019-03-29T03:28:16.203Z,66.57
2019-03-29T03:30:47.397Z,65.23
2019-03-29T03:33:18.440Z,65.67
2019-03-29T03:35:51.765Z,67.50
2019-03-29T03:38:22.829Z,65.37
2019-03-29T03:40:53.887Z,71.97
2019-03-29T03:43:24.964Z,67.70
2019-03-29T03:45:56.006Z,70.13
2019-03-29T03:48:27.251Z,79.27
2019-03-29T03:50:59.129Z,81.90
2019-03-29T03:53:30.975Z,75.93
2019-03-29T03:56:03.673Z,86.93
2019-03-29T03:58:35.635Z,85.27
2019-03-29T04:01:06.730Z,76.80
2019-03-29T04:03:37.904Z,95.00
2019-03-29T04:06:08.987Z,75.00
2019-03-29T04:08:40.617Z,88.83
2019-03-29T04:11:11.721Z,80.37
2019-03-29T04:13:43.832Z,83.53
2019-03-29T04:16:14.828Z,80.53
2019-03-29T04:18:45.983Z,79.60
2019-03-29T04:21:17.212Z,72.47
2019-03-29T04:23:48.387Z,69.23
2019-03-29T04:26:20.443Z,71.97
2019-03-29T04:29:04.194Z,85.97
2019-03-29T04:31:24.319Z,78.47
2019-03-29T04:33:55.411Z,76.20
2019-03-29T04:36:26.388Z,74.97
2019-03-29T04:38:57.395Z,74.30
2019-03-29T04:41:28.431Z,78.77
2019-03-29T04:43:59.486Z,84.83
2019-03-29T04:46:30.458Z,74.40
2019-03-29T04:49:01.662Z,78.10
2019-03-29T04:51:32.724Z,76.73
2019-03-29T04:54:03.897Z,86.03
2019-03-29T04:56:34.911Z,85.97
2019-03-29T04:59:06.045Z,86.93
2019-03-29T05:01:37.202Z,89.30
2019-03-29T05:04:08.224Z,85.40
2019-03-29T05:06:39.359Z,83.70
2019-03-29T05:09:10.429Z,88.57
2019-03-29T05:11:41.889Z,81.37
2019-03-29T05:14:12.890Z,81.93
2019-03-29T05:16:45.062Z,92.10
2019-03-29T05:19:16.117Z,106.23
2019-03-29T05:21:47.360Z,103.03
2019-03-29T05:24:18.371Z,99.97
2019-03-29T05:26:49.424Z,117.30
2019-03-29T05:29:20.378Z,109.17
2019-03-29T05:31:53.684Z,113.57
2019-03-29T05:34:24.198Z,134.57
2019-03-29T05:36:58.225Z,108.00
2019-03-29T05:39:28.878Z,92.47
2019-03-29T05:42:00.030Z,94.23
2019-03-29T05:44:31.085Z,93.17
2019-03-29T05:47:02.143Z,80.93
2019-03-29T05:49:34.198Z,82.23
2019-03-29T05:52:06.287Z,76.70
2019-03-29T05:54:37.336Z,75.03
2019-03-29T05:57:08.489Z,77.17
2019-03-29T05:59:39.775Z,71.17
2019-03-29T06:02:10.902Z,66.40
2019-03-29T06:04:42.855Z,66.73
2019-03-29T06:07:13.974Z,67.33
2019-03-29T06:09:46.014Z,67.67
2019-03-29T06:12:17.102Z,65.67
2019-03-29T06:14:48.278Z,64.40
2019-03-29T06:17:19.396Z,63.47
2019-03-29T06:19:50.601Z,67.50
2019-03-29T06:22:21.648Z,63.27
2019-03-29T06:24:52.767Z,58.17
2019-03-29T06:27:23.944Z,57.23
2019-03-29T06:29:55.075Z,56.37
2019-03-29T06:32:26.251Z,53.47
2019-03-29T06:34:57.524Z,52.93
2019-03-29T06:37:29.566Z,53.67
2019-03-29T06:40:01.227Z,53.70
2019-03-29T06:42:33.513Z,51.27
2019-03-29T06:45:04.925Z,49.57
2019-03-29T06:47:36.197Z,51.00
2019-03-29T06:50:07.568Z,48.13
2019-03-29T06:52:38.602Z,46.53
2019-03-29T06:55:09.747Z,50.97
2019-03-29T06:57:40.886Z,50.33
2019-03-29T07:00:12.071Z,47.83
2019-03-29T07:02:43.309Z,48.77
2019-03-29T07:05:14.369Z,46.60
2019-03-29T07:07:45.446Z,45.43
2019-03-29T07:10:16.534Z,43.30
2019-03-29T07:12:47.663Z,40.37
2019-03-29T07:15:18.833Z,38.10
2019-03-29T07:17:49.898Z,37.83
2019-03-29T07:20:20.945Z,37.43
2019-03-29T07:22:52.095Z,37.10
2019-03-29T07:25:23.177Z,38.83
2019-03-29T07:27:54.238Z,36.80
2019-03-29T07:30:25.275Z,35.10
2019-03-29T07:32:56.460Z,35.07
2019-03-29T07:35:27.499Z,36.53
2019-03-29T07:37:58.609Z,37.73
2019-03-29T07:40:29.769Z,36.43
2019-03-29T07:43:00.927Z,37.03
2019-03-29T07:45:32.070Z,44.23
2019-03-29T07:48:03.218Z,40.30
2019-03-29T07:50:34.291Z,42.67
2019-03-29T07:53:05.465Z,43.60
2019-03-29T07:55:37.353Z,40.37
2019-03-29T07:58:08.843Z,44.40
2019-03-29T08:00:42.361Z,60.03
2019-03-29T08:03:13.660Z,56.83
2019-03-29T08:05:45.262Z,54.80
2019-03-29T08:08:23.836Z,64.27
2019-03-29T08:10:49.309Z,55.30
2019-03-29T08:13:20.345Z,53.97
2019-03-29T08:15:51.523Z,65.67
2019-03-29T08:18:22.699Z,63.70
2019-03-29T08:20:53.717Z,54.73
2019-03-29T08:23:24.931Z,51.10
2019-03-29T08:25:56.027Z,45.90
2019-03-29T08:28:27.095Z,45.83
2019-03-29T08:31:01.995Z,39.50
2019-03-29T08:33:33.153Z,40.53
2019-03-29T08:36:04.327Z,35.70
2019-03-29T08:38:35.525Z,35.23
2019-03-29T08:41:06.801Z,35.13
2019-03-29T08:43:37.955Z,33.47
2019-03-29T08:46:09.071Z,30.73
2019-03-29T08:48:40.228Z,35.03
2019-03-29T08:51:11.438Z,38.60
2019-03-29T08:53:42.507Z,38.53
2019-03-29T08:56:13.668Z,35.23
2019-03-29T08:58:46.459Z,35.40
2019-03-29T09:01:19.897Z,37.47
2019-03-29T09:04:04.611Z,37.03
2019-03-29T09:06:25.048Z,33.67
2019-03-29T09:08:56.981Z,31.40
2019-03-29T09:11:28.085Z,28.63
2019-03-29T09:13:59.235Z,27.93
2019-03-29T09:16:30.341Z,27.23
2019-03-29T09:19:01.439Z,26.87
2019-03-29T09:21:32.451Z,28.30
2019-03-29T09:24:03.643Z,28.67
2019-03-29T09:26:34.739Z,26.30
2019-03-29T09:29:05.957Z,24.70
2019-03-29T09:31:37.091Z,23.13
2019-03-29T09:34:08.193Z,22.80
2019-03-29T09:36:39.254Z,23.03
2019-03-29T09:39:10.361Z,23.17
2019-03-29T09:41:41.615Z,21.17
2019-03-29T09:44:12.841Z,22.53
2019-03-29T09:46:43.999Z,22.13
2019-03-29T09:49:15.072Z,25.50
2019-03-29T09:51:46.317Z,22.30
2019-03-29T09:54:20.243Z,22.03
2019-03-29T09:56:50.331Z,25.77
2019-03-29T09:59:23.106Z,20.57
2019-03-29T10:01:54.488Z,20.37
2019-03-29T10:04:25.603Z,19.70
2019-03-29T10:06:56.846Z,16.60
2019-03-29T10:09:27.997Z,14.87
2019-03-29T10:11:59.290Z,17.20
2019-03-29T10:14:33.411Z,19.07
2019-03-29T10:17:03.737Z,20.30
2019-03-29T10:19:34.877Z,23.13
2019-03-29T10:22:06.037Z,25.97
2019-03-29T10:24:37.218Z,25.93
2019-03-29T10:27:08.345Z,20.93
2019-03-29T10:29:39.423Z,21.33
2019-03-29T10:32:10.507Z,20.27
2019-03-29T10:34:41.687Z,22.73
2019-03-29T10:37:12.833Z,23.43
2019-03-29T10:39:43.954Z,25.23
2019-03-29T10:42:15.042Z,31.60
2019-03-29T10:44:49.285Z,34.50
2019-03-29T10:47:18.970Z,27.50
2019-03-29T10:49:50.258Z,37.17
2019-03-29T10:52:22.533Z,36.33
2019-03-29T10:54:53.646Z,28.63
2019-03-29T10:57:24.773Z,30.73
2019-03-29T10:59:55.978Z,35.87
2019-03-29T11:02:27.076Z,29.67
2019-03-29T11:04:58.185Z,30.37
2019-03-29T11:07:29.254Z,28.87
2019-03-29T11:10:00.483Z,37.73
2019-03-29T11:12:31.666Z,30.60
2019-03-29T11:15:06.347Z,29.07
2019-03-29T11:17:35.591Z,27.97
2019-03-29T11:20:06.882Z,30.33
2019-03-29T11:22:38.028Z,29.70
2019-03-29T11:25:09.141Z,28.93
2019-03-29T11:27:40.236Z,31.60
2019-03-29T11:30:14.230Z,40.47
2019-03-29T11:32:45.344Z,41.43
2019-03-29T11:35:16.486Z,46.30
2019-03-29T11:37:47.594Z,34.63
2019-03-29T11:40:18.798Z,31.03
2019-03-29T11:42:49.924Z,28.53
2019-03-29T11:45:20.999Z,25.50
2019-03-29T11:48:06.878Z,26.93
2019-03-29T11:50:28.961Z,24.07
2019-03-29T11:52:58.940Z,26.03
2019-03-29T11:55:30.032Z,24.60
2019-03-29T11:58:01.153Z,24.17
2019-03-29T12:00:36.871Z,23.10
2019-03-29T12:03:09.528Z,22.73
2019-03-29T12:05:40.865Z,25.47
2019-03-29T12:08:12.149Z,23.23
2019-03-29T12:10:43.320Z,32.53
2019-03-29T12:13:14.459Z,29.53
2019-03-29T12:15:45.622Z,21.63
2019-03-29T12:18:16.765Z,19.67
2019-03-29T12:20:47.821Z,25.00
2019-03-29T12:23:18.961Z,23.27
2019-03-29T12:25:50.215Z,22.53
2019-03-29T12:28:21.373Z,23.70
2019-03-29T12:30:52.452Z,22.23
2019-03-29T12:33:23.618Z,22.20
2019-03-29T12:35:54.685Z,25.20
2019-03-29T12:38:25.830Z,24.83
2019-03-29T12:40:56.968Z,23.97
2019-03-29T12:43:27.984Z,23.60
2019-03-29T12:45:59.278Z,22.53
2019-03-29T12:48:30.305Z,25.80
2019-03-29T12:51:01.517Z,21.30
2019-03-29T12:53:32.897Z,26.13
2019-03-29T12:56:04.087Z,24.03
2019-03-29T12:58:35.317Z,23.93
2019-03-29T13:01:08.043Z,21.03
2019-03-29T13:03:41.222Z,22.10
2019-03-29T13:06:12.542Z,21.00
2019-03-29T13:08:43.816Z,18.50
2019-03-29T13:11:15.314Z,26.77
2019-03-29T13:13:46.409Z,20.93
2019-03-29T13:16:17.540Z,20.20
2019-03-29T13:18:48.815Z,20.83
2019-03-29T13:21:19.984Z,19.73
2019-03-29T13:23:51.078Z,19.50
2019-03-29T13:26:22.252Z,20.07
2019-03-29T13:28:53.541Z,19.87
2019-03-29T13:31:24.619Z,19.30
2019-03-29T13:33:55.745Z,21.60
2019-03-29T13:36:27.510Z,27.77
2019-03-29T13:38:58.499Z,30.93
2019-03-29T13:41:30.809Z,22.13
2019-03-29T13:44:01.811Z,20.03
2019-03-29T13:46:32.986Z,21.57
2019-03-29T13:49:04.042Z,19.60
2019-03-29T13:51:35.246Z,21.30
2019-03-29T13:54:06.330Z,21.87
2019-03-29T13:56:37.494Z,22.73
2019-03-29T13:59:08.644Z,21.67
2019-03-29T14:01:39.795Z,20.23
2019-03-29T14:04:10.937Z,19.43
2019-03-29T14:06:42.086Z,25.73
2019-03-29T14:09:13.142Z,28.90
2019-03-29T14:11:44.214Z,21.13
2019-03-29T14:14:17.532Z,20.00
2019-03-29T14:16:48.716Z,19.13
2019-03-29T14:19:19.912Z,19.00
2019-03-29T14:21:50.976Z,18.83
2019-03-29T14:24:22.083Z,19.03
2019-03-29T14:26:53.282Z,17.03
2019-03-29T14:29:25.510Z,20.73
2019-03-29T14:31:56.877Z,19.60
2019-03-29T14:34:28.192Z,20.40
2019-03-29T14:36:59.530Z,21.83
2019-03-29T14:39:32.155Z,17.23
2019-03-29T14:42:03.400Z,18.90
2019-03-29T14:44:34.564Z,20.37
2019-03-29T14:47:05.730Z,19.67
2019-03-29T14:49:36.758Z,19.47
2019-03-29T14:52:08.052Z,20.03
2019-03-29T14:54:39.162Z,22.33
2019-03-29T14:57:10.285Z,21.30
2019-03-29T14:59:41.398Z,20.53
2019-03-29T15:02:12.575Z,18.67
2019-03-29T15:04:43.622Z,19.50
2019-03-29T15:07:14.978Z,21.13
2019-03-29T15:09:46.551Z,20.53
2019-03-29T15:12:17.776Z,20.53
2019-03-29T15:14:50.962Z,19.87
2019-03-29T15:17:22.211Z,20.03
2019-03-29T15:19:53.310Z,23.47
2019-03-29T15:22:24.384Z,24.33
2019-03-29T15:24:55.450Z,23.33
2019-03-29T15:27:26.603Z,22.07
2019-03-29T15:29:57.660Z,28.57
2019-03-29T15:32:30.202Z,25.30
2019-03-29T15:35:02.434Z,21.13
2019-03-29T15:37:33.566Z,21.10
2019-03-29T15:40:07.622Z,21.17
2019-03-29T15:42:38.940Z,21.37
2019-03-29T15:45:20.307Z,21.30
2019-03-29T15:47:42.941Z,23.00
2019-03-29T15:50:13.968Z,23.97
2019-03-29T15:52:45.127Z,24.27
2019-03-29T15:55:16.218Z,24.60
2019-03-29T15:57:47.379Z,28.17
2019-03-29T16:00:19.246Z,28.13
2019-03-29T16:02:50.385Z,26.27
2019-03-29T16:05:21.693Z,26.43
2019-03-29T16:07:53.115Z,27.83
2019-03-29T16:10:25.434Z,28.73
2019-03-29T16:12:56.899Z,31.70
2019-03-29T16:15:35.049Z,40.53
2019-03-29T16:18:01.024Z,37.23
2019-03-29T16:20:32.224Z,32.37
2019-03-29T16:23:04.962Z,28.60
2019-03-29T16:25:36.125Z,26.53
2019-03-29T16:28:07.725Z,25.93
2019-03-29T16:30:38.772Z,26.23
2019-03-29T16:33:10.441Z,28.17
2019-03-29T16:35:41.700Z,25.40
2019-03-29T16:38:12.867Z,25.50
2019-03-29T16:40:44.024Z,26.37
2019-03-29T16:43:15.123Z,25.60
2019-03-29T16:45:48.236Z,26.57
2019-03-29T16:48:22.264Z,25.87
2019-03-29T16:50:54.592Z,26.50
2019-03-29T16:53:25.867Z,26.57
2019-03-29T16:55:57.291Z,25.97
2019-03-29T16:58:28.576Z,26.97
2019-03-29T17:01:00.762Z,25.53
2019-03-29T17:03:31.942Z,26.67
2019-03-29T17:06:03.148Z,26.73
2019-03-29T17:08:34.288Z,28.10
2019-03-29T17:11:05.356Z,29.27
2019-03-29T17:13:36.808Z,29.73
2019-03-29T17:16:08.004Z,28.73
2019-03-29T17:18:40.341Z,29.63
2019-03-29T17:21:11.480Z,29.20
2019-03-29T17:23:42.713Z,30.17
2019-03-29T17:26:15.182Z,28.60
2019-03-29T17:28:47.250Z,30.07
2019-03-29T17:31:18.737Z,29.17
2019-03-29T17:33:49.994Z,29.27
2019-03-29T17:36:21.190Z,28.17
2019-03-29T17:38:52.422Z,28.63
2019-03-29T17:41:23.572Z,29.20
2019-03-29T17:43:54.717Z,27.97
2019-03-29T17:46:25.811Z,28.63
2019-03-29T17:48:56.954Z,27.73
2019-03-29T17:51:30.429Z,27.07
2019-03-29T17:54:04.007Z,26.13
2019-03-29T17:56:36.285Z,27.80
2019-03-29T17:59:08.428Z,27.13
2019-03-29T18:01:39.601Z,27.63
2019-03-29T18:04:10.708Z,27.67
2019-03-29T18:06:42.346Z,26.63
2019-03-29T18:09:13.346Z,26.90
2019-03-29T18:11:44.564Z,28.90
2019-03-29T18:14:15.780Z,29.10
2019-03-29T18:16:46.966Z,29.03
2019-03-29T18:19:18.095Z,31.10
2019-03-29T18:21:50.536Z,29.43
2019-03-29T18:24:22.041Z,29.93
2019-03-29T18:26:53.364Z,31.07
2019-03-29T18:29:24.558Z,32.40
2019-03-29T18:31:55.784Z,30.80
2019-03-29T18:34:27.005Z,31.07
2019-03-29T18:37:00.562Z,32.43
2019-03-29T18:39:33.343Z,37.23
2019-03-29T18:42:04.631Z,40.93
2019-03-29T18:44:37.719Z,51.00
2019-03-29T18:47:08.914Z,65.53
2019-03-29T18:49:40.157Z,60.93
2019-03-29T18:52:11.224Z,59.03
2019-03-29T18:54:42.374Z,63.23
2019-03-29T18:57:13.450Z,68.50
2019-03-29T18:59:44.604Z,60.93
2019-03-29T19:02:15.711Z,57.80
2019-03-29T19:04:46.894Z,154.27
2019-03-29T19:07:22.479Z,416.70
2019-03-29T19:09:53.682Z,263.10
2019-03-29T19:12:24.813Z,136.60
2019-03-29T19:14:56.047Z,91.77
2019-03-29T19:17:27.216Z,74.17
2019-03-29T19:19:58.398Z,53.73
2019-03-29T19:22:29.630Z,48.43
2019-03-29T19:25:00.921Z,44.57
2019-03-29T19:27:32.020Z,45.77
2019-03-29T19:30:05.351Z,52.07
2019-03-29T19:32:36.930Z,55.97
2019-03-29T19:35:08.154Z,59.23
2019-03-29T19:37:39.401Z,81.17
2019-03-29T19:40:12.057Z,94.50
2019-03-29T19:42:43.577Z,100.00
2019-03-29T19:45:18.107Z,100.37
2019-03-29T19:47:49.648Z,88.33
2019-03-29T19:50:21.192Z,78.37
2019-03-29T19:52:54.850Z,74.10
2019-03-29T19:55:25.976Z,78.00
2019-03-29T19:57:57.243Z,81.17
2019-03-29T20:00:39.689Z,84.10
2019-03-29T20:03:10.817Z,83.67
2019-03-29T20:05:42.153Z,90.20
2019-03-29T20:08:15.228Z,99.60
2019-03-29T20:10:46.861Z,97.83
2019-03-29T20:13:18.059Z,100.87
2019-03-29T20:15:49.272Z,103.67
2019-03-29T20:18:20.575Z,107.60
2019-03-29T20:20:52.227Z,111.77
2019-03-29T20:23:23.372Z,107.47
2019-03-29T20:25:54.579Z,104.80
2019-03-29T20:28:25.667Z,105.40
2019-03-29T20:30:59.254Z,100.10
2019-03-29T20:33:30.419Z,105.73
2019-03-29T20:36:03.339Z,115.40
2019-03-29T20:38:36.784Z,117.50
2019-03-29T20:41:07.894Z,128.47
2019-03-29T20:43:39.215Z,137.47
2019-03-29T20:46:10.274Z,143.13
2019-03-29T20:48:41.579Z,158.80
2019-03-29T20:51:12.641Z,189.77
2019-03-29T20:53:43.930Z,191.57
2019-03-29T20:56:15.109Z,190.87
2019-03-29T20:58:46.237Z,187.00
2019-03-29T21:01:17.475Z,188.93
2019-03-29T21:03:48.715Z,169.37
2019-03-29T21:06:19.959Z,158.33
2019-03-29T21:08:51.102Z,164.67
2019-03-29T21:11:23.443Z,184.30
2019-03-29T21:13:55.203Z,191.60
2019-03-29T21:16:27.348Z,187.80
2019-03-29T21:19:07.404Z,195.07
2019-03-29T21:21:39.019Z,191.20
2019-03-29T21:24:11.720Z,180.43
2019-03-29T21:26:42.755Z,177.17
2019-03-29T21:29:13.849Z,172.00
2019-03-29T21:31:45.029Z,166.03
2019-03-29T21:34:16.134Z,159.47
2019-03-29T21:36:47.293Z,156.80
2019-03-29T21:39:18.489Z,166.10
2019-03-29T21:41:49.647Z,147.70
2019-03-29T21:44:20.754Z,137.93
2019-03-29T21:46:53.399Z,131.00
2019-03-29T21:49:24.465Z,132.27
2019-03-29T21:51:55.525Z,142.47
2019-03-29T21:54:26.658Z,134.10
2019-03-29T21:56:57.731Z,128.87
2019-03-29T21:59:28.958Z,121.03
2019-03-29T22:02:02.045Z,115.23
2019-03-29T22:04:33.748Z,115.47
2019-03-29T22:07:05.630Z,111.40
2019-03-29T22:09:37.503Z,115.60
2019-03-29T22:12:08.859Z,113.47
2019-03-29T22:14:39.891Z,116.93
2019-03-29T22:17:10.957Z,114.53
2019-03-29T22:19:42.058Z,108.10
2019-03-29T22:22:14.450Z,107.07
2019-03-29T22:24:47.141Z,107.23
2019-03-29T22:27:18.230Z,106.13
2019-03-29T22:29:49.249Z,102.80
2019-03-29T22:32:20.387Z,99.73
2019-03-29T22:34:52.395Z,94.00
2019-03-29T22:37:23.475Z,92.27
2019-03-29T22:39:54.729Z,93.50
2019-03-29T22:42:25.891Z,90.50
2019-03-29T22:45:00.269Z,95.53
2019-03-29T22:47:31.592Z,94.03
2019-03-29T22:50:02.726Z,98.23
2019-03-29T22:52:34.390Z,93.53
2019-03-29T22:55:05.969Z,94.77
2019-03-29T22:57:38.087Z,91.07
2019-03-29T23:00:17.708Z,97.57
2019-03-29T23:02:50.501Z,101.77
2019-03-29T23:05:23.245Z,97.33
2019-03-29T23:07:54.421Z,96.50
2019-03-29T23:10:25.472Z,90.27
2019-03-29T23:12:56.670Z,98.03
2019-03-29T23:15:27.789Z,108.57
2019-03-29T23:17:58.912Z,108.63
2019-03-29T23:20:31.103Z,107.27
2019-03-29T23:23:02.199Z,111.37
2019-03-29T23:25:33.297Z,115.50
2019-03-29T23:28:04.540Z,111.70
2019-03-29T23:30:36.863Z,123.10
2019-03-29T23:33:08.107Z,128.53
2019-03-29T23:35:39.213Z,128.37
2019-03-29T23:38:10.685Z,125.87
2019-03-29T23:40:41.787Z,131.93
2019-03-29T23:43:13.075Z,129.10
2019-03-29T23:45:44.213Z,127.10
2019-03-29T23:48:15.360Z,133.13
2019-03-29T23:50:46.566Z,127.57
2019-03-29T23:53:17.693Z,125.27
2019-03-29T23:55:54.792Z,125.60
2019-03-29T23:58:25.868Z,124.27
